createdAt,value
2023-04-22T00:00:14.931Z,94071.59
2023-04-22T00:02:43.747Z,94059.34
2023-04-22T00:05:15.163Z,94064.16
2023-04-22T00:07:45.727Z,94074.22
2023-04-22T00:10:15.706Z,94064.56
2023-04-22T00:12:44.232Z,94073.41
2023-04-22T00:15:13.350Z,94070.34
2023-04-22T00:17:42.787Z,94067.16
2023-04-22T00:20:12.804Z,94067.16
2023-04-22T00:22:41.241Z,94070.00
2023-04-22T00:25:10.700Z,94070.50
2023-04-22T00:27:40.600Z,94067.31
2023-04-22T00:30:10.956Z,94071.19
2023-04-22T00:32:39.802Z,94078.38
2023-04-22T00:35:09.658Z,94074.50
2023-04-22T00:37:38.655Z,94070.16
2023-04-22T00:40:09.157Z,94068.94
2023-04-22T00:42:40.573Z,94074.56
2023-04-22T00:45:13.699Z,94077.78
2023-04-22T00:47:43.379Z,94075.41
2023-04-22T00:50:12.411Z,94076.75
2023-04-22T00:52:40.872Z,94085.75
2023-04-22T00:55:10.692Z,94086.06
2023-04-22T00:57:41.474Z,94088.44
2023-04-22T01:00:11.726Z,94082.78
2023-04-22T01:02:40.543Z,94092.41
2023-04-22T01:05:10.528Z,94092.09
2023-04-22T01:07:39.081Z,94092.09
2023-04-22T01:10:09.222Z,94090.88
2023-04-22T01:12:37.782Z,94089.84
2023-04-22T01:15:09.742Z,94089.00
2023-04-22T01:17:38.607Z,94084.47
2023-04-22T01:20:10.447Z,94079.25
2023-04-22T01:22:45.561Z,94080.91
2023-04-22T01:25:15.409Z,94079.81
2023-04-22T01:27:44.699Z,94083.34
2023-04-22T01:30:18.803Z,94088.00
2023-04-22T01:32:47.971Z,94092.88
2023-04-22T01:35:16.464Z,94091.94
2023-04-22T01:37:45.676Z,94079.63
2023-04-22T01:40:19.791Z,94080.97
2023-04-22T01:42:48.464Z,94080.66
2023-04-22T01:45:17.641Z,94076.16
2023-04-22T01:48:15.258Z,94075.44
2023-04-22T01:51:07.242Z,94083.03
2023-04-22T01:53:37.114Z,94078.97
2023-04-22T01:56:20.179Z,94078.06
2023-04-22T01:58:49.112Z,94073.75
2023-04-22T02:01:17.700Z,94073.06
2023-04-22T02:03:46.367Z,94076.59
2023-04-22T02:06:14.976Z,94076.69
2023-04-22T02:08:43.490Z,94078.63
2023-04-22T02:11:12.019Z,94076.56
2023-04-22T02:13:42.913Z,94081.13
2023-04-22T02:16:11.747Z,94065.03
2023-04-22T02:18:40.237Z,94072.38
2023-04-22T02:21:08.744Z,94068.75
2023-04-22T02:23:38.583Z,94079.28
2023-04-22T02:26:09.010Z,94071.25
2023-04-22T02:28:37.472Z,94072.72
2023-04-22T02:31:07.528Z,94071.75
2023-04-22T02:33:36.458Z,94075.13
2023-04-22T02:36:05.328Z,94076.94
2023-04-22T02:38:33.826Z,94075.31
2023-04-22T02:41:40.875Z,94070.56
2023-04-22T02:44:09.333Z,94090.03
2023-04-22T02:46:39.303Z,94077.81
2023-04-22T02:49:07.822Z,94088.09
2023-04-22T02:51:36.316Z,94092.66
2023-04-22T02:54:04.919Z,94090.72
2023-04-22T02:56:33.440Z,94084.69
2023-04-22T02:59:01.911Z,94092.75
2023-04-22T03:01:30.972Z,94088.69
2023-04-22T03:04:01.134Z,94088.94
2023-04-22T03:06:29.772Z,94091.16
2023-04-22T03:08:58.272Z,94086.78
2023-04-22T03:11:27.165Z,94087.09
2023-04-22T03:13:55.601Z,94090.72
2023-04-22T03:16:25.611Z,94098.53
2023-04-22T03:18:54.026Z,94094.56
2023-04-22T03:21:23.853Z,94092.41
2023-04-22T03:23:52.402Z,94089.94
2023-04-22T03:26:20.871Z,94093.00
2023-04-22T03:28:57.996Z,94097.28
2023-04-22T03:31:26.678Z,94100.78
2023-04-22T03:33:55.113Z,94097.94
2023-04-22T03:36:26.731Z,94106.78
2023-04-22T03:38:55.231Z,94110.41
2023-04-22T03:41:26.415Z,94105.53
2023-04-22T03:44:02.889Z,94110.06
2023-04-22T03:46:31.705Z,94116.41
2023-04-22T03:49:00.199Z,94111.75
2023-04-22T03:51:30.172Z,94119.66
2023-04-22T03:53:58.660Z,94127.94
2023-04-22T03:56:27.130Z,94126.44
2023-04-22T03:58:55.665Z,94127.25
2023-04-22T04:01:24.833Z,94124.75
2023-04-22T04:03:53.634Z,94130.34
2023-04-22T04:06:22.318Z,94125.91
2023-04-22T04:08:52.157Z,94137.47
2023-04-22T04:11:20.671Z,94135.75
2023-04-22T04:13:49.152Z,94128.13
2023-04-22T04:16:17.641Z,94138.66
2023-04-22T04:18:46.219Z,94138.56
2023-04-22T04:21:14.647Z,94138.91
2023-04-22T04:23:43.069Z,94142.97
2023-04-22T04:26:12.908Z,94153.13
2023-04-22T04:28:41.695Z,94148.56
2023-04-22T04:31:10.169Z,94143.72
2023-04-22T04:33:39.345Z,94146.41
2023-04-22T04:36:10.704Z,94152.97
2023-04-22T04:38:53.081Z,94154.03
2023-04-22T04:44:40.678Z,94151.63
2023-04-22T04:47:09.102Z,94161.59
2023-04-22T04:49:40.723Z,94156.28
2023-04-22T04:52:24.815Z,94157.75
2023-04-22T04:54:53.329Z,94160.25
2023-04-22T04:57:23.216Z,94168.94
2023-04-22T04:59:51.695Z,94167.28
2023-04-22T05:02:20.378Z,94172.56
2023-04-22T05:04:48.990Z,94169.13
2023-04-22T05:07:17.659Z,94163.09
2023-04-22T05:09:46.103Z,94176.41
2023-04-22T05:12:15.333Z,94168.50
2023-04-22T05:14:46.575Z,94176.63
2023-04-22T05:17:15.569Z,94177.06
2023-04-22T05:19:44.033Z,94166.22
2023-04-22T05:22:12.531Z,94168.75
2023-04-22T05:24:43.755Z,94167.34
2023-04-22T05:27:12.506Z,94167.16
2023-04-22T05:29:41.200Z,94173.28
2023-04-22T05:32:11.633Z,94174.09
2023-04-22T05:34:40.190Z,94173.59
2023-04-22T05:37:14.724Z,94180.44
2023-04-22T05:39:43.252Z,94174.97
2023-04-22T05:42:12.280Z,94180.59
2023-04-22T05:44:41.051Z,94182.75
2023-04-22T05:47:10.947Z,94183.84
2023-04-22T05:49:45.365Z,94188.34
2023-04-22T05:52:23.303Z,94185.44
2023-04-22T05:54:51.723Z,94182.53
2023-04-22T05:57:20.274Z,94183.84
2023-04-22T05:59:48.680Z,94175.78
2023-04-22T06:02:18.730Z,94180.75
2023-04-22T06:04:47.363Z,94181.84
2023-04-22T06:07:15.995Z,94181.28
2023-04-22T06:09:44.490Z,94181.28
2023-04-22T06:12:13.142Z,94180.22
2023-04-22T06:14:41.545Z,94182.59
2023-04-22T06:17:10.379Z,94179.94
2023-04-22T06:19:40.446Z,94181.75
2023-04-22T06:22:09.053Z,94178.84
2023-04-22T06:24:37.460Z,94174.31
2023-04-22T06:27:05.885Z,94175.50
2023-04-22T06:29:34.805Z,94176.66
2023-04-22T06:32:03.578Z,94176.28
2023-04-22T06:34:32.087Z,94170.31
2023-04-22T06:37:01.903Z,94173.72
2023-04-22T06:39:30.434Z,94174.25
2023-04-22T06:41:58.848Z,94168.34
2023-04-22T06:44:27.958Z,94174.06
2023-04-22T06:46:58.097Z,94171.97
2023-04-22T06:49:26.901Z,94174.66
2023-04-22T06:51:55.407Z,94180.91
2023-04-22T06:54:25.315Z,94176.75
2023-04-22T06:56:53.834Z,94184.97
2023-04-22T06:59:22.319Z,94186.97
2023-04-22T07:01:50.998Z,94183.56
2023-04-22T07:04:19.557Z,94186.97
2023-04-22T07:06:48.146Z,94183.31
2023-04-22T07:09:19.539Z,94184.59
2023-04-22T07:11:49.332Z,94189.56
2023-04-22T07:14:17.842Z,94180.81
2023-04-22T07:16:46.333Z,94182.22
2023-04-22T07:19:14.784Z,94184.72
2023-04-22T07:21:43.241Z,94178.94
2023-04-22T07:24:13.216Z,94178.63
2023-04-22T07:26:43.458Z,94177.53
2023-04-22T07:29:13.512Z,94180.13
2023-04-22T07:31:42.034Z,94174.03
2023-04-22T07:34:11.014Z,94179.09
2023-04-22T07:36:39.641Z,94193.59
2023-04-22T07:39:11.560Z,94182.84
2023-04-22T07:41:40.085Z,94172.69
2023-04-22T07:44:18.494Z,94175.16
2023-04-22T07:46:51.581Z,94183.91
2023-04-22T07:49:21.361Z,94175.34
2023-04-22T07:51:49.872Z,94171.44
2023-04-22T07:54:18.265Z,94171.16
2023-04-22T07:56:46.751Z,94168.84
2023-04-22T07:59:16.613Z,94168.63
2023-04-22T08:02:00.712Z,94168.31
2023-04-22T08:04:29.268Z,94165.97
2023-04-22T08:06:57.939Z,94167.06
2023-04-22T08:09:26.438Z,94168.72
2023-04-22T08:11:55.051Z,94155.72
2023-04-22T08:14:24.963Z,94161.25
2023-04-22T08:16:53.909Z,94158.47
2023-04-22T08:19:22.460Z,94154.31
2023-04-22T08:21:51.758Z,94149.72
2023-04-22T08:24:20.369Z,94159.88
2023-04-22T08:26:48.916Z,94146.13
2023-04-22T08:29:17.465Z,94143.44
2023-04-22T08:31:47.342Z,94143.16
2023-04-22T08:34:36.716Z,94141.91
2023-04-22T08:37:05.842Z,94143.28
2023-04-22T08:39:34.393Z,94143.78
2023-04-22T08:42:02.993Z,94128.69
2023-04-22T08:44:32.068Z,94133.91
2023-04-22T08:47:06.589Z,94124.28
2023-04-22T08:49:41.145Z,94126.31
2023-04-22T08:52:12.822Z,94124.06
2023-04-22T08:54:41.336Z,94122.69
2023-04-22T08:57:11.452Z,94124.59
2023-04-22T08:59:41.349Z,94125.69
2023-04-22T09:02:20.339Z,94121.03
2023-04-22T09:04:52.408Z,94115.13
2023-04-22T09:07:25.819Z,94103.31
2023-04-22T09:09:56.425Z,94103.06
2023-04-22T09:12:26.378Z,94103.13
2023-04-22T09:14:55.546Z,94109.94
2023-04-22T09:17:33.976Z,94105.16
2023-04-22T09:20:04.511Z,94097.22
2023-04-22T09:22:41.186Z,94106.28
2023-04-22T09:25:18.229Z,94105.22
2023-04-22T09:27:51.760Z,94098.50
2023-04-22T09:30:25.784Z,94091.75
2023-04-22T09:32:57.797Z,94088.16
2023-04-22T09:35:31.152Z,94080.78
2023-04-22T09:38:11.272Z,94085.34
2023-04-22T09:40:43.654Z,94080.78
2023-04-22T09:43:12.809Z,94081.09
2023-04-22T09:45:44.163Z,94068.59
2023-04-22T09:48:16.633Z,94083.75
2023-04-22T09:50:48.624Z,94080.72
2023-04-22T09:53:19.298Z,94077.50
2023-04-22T09:55:56.809Z,94077.25
2023-04-22T09:58:27.621Z,94075.44
2023-04-22T10:01:00.732Z,94079.34
2023-04-22T10:03:30.938Z,94077.81
2023-04-22T10:05:59.627Z,94080.19
2023-04-22T10:08:28.612Z,94078.56
2023-04-22T10:10:57.526Z,94082.78
2023-04-22T10:13:25.946Z,94081.56
2023-04-22T10:15:57.688Z,94073.94
2023-04-22T10:18:37.525Z,94067.75
2023-04-22T10:21:07.571Z,94059.91
2023-04-22T10:23:36.212Z,94067.25
2023-04-22T10:26:07.151Z,94059.78
2023-04-22T10:28:35.911Z,94059.53
2023-04-22T10:31:08.454Z,94051.69
2023-04-22T10:33:42.604Z,94042.72
2023-04-22T10:36:17.997Z,94048.16
2023-04-22T10:39:22.084Z,94041.78
2023-04-22T10:41:58.061Z,94048.66
2023-04-22T10:44:31.499Z,94039.81
2023-04-22T10:47:03.398Z,94038.00
2023-04-22T10:49:34.879Z,94039.63
2023-04-22T10:52:05.190Z,94040.91
2023-04-22T10:55:02.141Z,94029.84
2023-04-22T10:57:41.576Z,94030.19
2023-04-22T11:00:53.084Z,94041.34
2023-04-22T11:03:29.949Z,94029.22
2023-04-22T11:06:22.413Z,94024.41
2023-04-22T11:09:13.018Z,94021.88
2023-04-22T11:11:41.598Z,94033.47
2023-04-22T11:14:11.642Z,94025.03
2023-04-22T11:16:40.325Z,94030.19
2023-04-22T11:19:40.669Z,94030.84
2023-04-22T11:22:12.198Z,94033.19
2023-04-22T11:24:40.617Z,94040.28
2023-04-22T11:27:09.014Z,94044.81
2023-04-22T11:29:37.796Z,94051.69
2023-04-22T11:32:06.700Z,94066.75
2023-04-22T11:34:35.177Z,94073.53
2023-04-22T11:37:03.695Z,94085.53
2023-04-22T11:39:46.508Z,94082.66
2023-04-22T11:42:43.575Z,94076.78
2023-04-22T11:45:13.584Z,94080.03
2023-04-22T11:47:43.030Z,94084.88
2023-04-22T11:50:13.800Z,94083.94
2023-04-22T11:52:49.777Z,94083.53
2023-04-22T11:55:23.992Z,94079.78
2023-04-22T11:58:01.203Z,94093.28
2023-04-22T12:00:34.923Z,94095.78
2023-04-22T12:03:05.448Z,94091.84
2023-04-22T12:05:37.337Z,94095.22
2023-04-22T12:08:10.810Z,94101.00
2023-04-22T12:10:46.576Z,94097.50
2023-04-22T12:13:23.066Z,94102.38
2023-04-22T12:15:57.062Z,94110.59
2023-04-22T12:18:32.317Z,94101.91
2023-04-22T12:21:23.680Z,94100.78
2023-04-22T12:23:55.457Z,94089.34
2023-04-22T12:26:27.753Z,94093.28
2023-04-22T12:29:36.712Z,94089.34
2023-04-22T12:32:05.198Z,94099.56
2023-04-22T12:34:41.609Z,94085.25
2023-04-22T12:37:10.241Z,94090.88
2023-04-22T12:39:38.891Z,94085.81
2023-04-22T12:42:09.018Z,94074.53
2023-04-22T12:44:38.145Z,94093.19
2023-04-22T12:47:06.704Z,94083.91
2023-04-22T12:49:36.469Z,94078.22
2023-04-22T12:52:04.925Z,94079.06
2023-04-22T12:54:33.340Z,94083.28
2023-04-22T12:57:02.726Z,94080.22
2023-04-22T12:59:32.612Z,94082.41
2023-04-22T13:02:01.133Z,94066.22
2023-04-22T13:04:29.729Z,94079.03
2023-04-22T13:06:58.198Z,94076.38
2023-04-22T13:09:27.125Z,94065.28
2023-04-22T13:11:55.599Z,94088.81
2023-04-22T13:14:24.112Z,94074.59
2023-04-22T13:16:54.200Z,94067.34
2023-04-22T13:19:25.618Z,94067.59
2023-04-22T13:21:54.278Z,94061.97
2023-04-22T13:24:22.790Z,94066.69
2023-04-22T13:26:51.381Z,94059.53
2023-04-22T13:29:19.882Z,94065.72
2023-04-22T13:31:48.344Z,94057.94
2023-04-22T13:34:18.169Z,94065.94
2023-04-22T13:36:47.205Z,94063.13
2023-04-22T13:39:15.972Z,94061.75
2023-04-22T13:41:44.645Z,94067.78
2023-04-22T13:44:13.825Z,94058.44
2023-04-22T13:46:43.964Z,94059.25
2023-04-22T13:49:12.817Z,94053.75
2023-04-22T13:51:42.679Z,94057.66
2023-04-22T13:54:11.100Z,94061.63
2023-04-22T13:56:39.672Z,94060.06
2023-04-22T13:59:08.099Z,94061.59
2023-04-22T14:01:39.621Z,94044.50
2023-04-22T14:04:08.312Z,94060.31
2023-04-22T14:06:36.970Z,94056.22
2023-04-22T14:09:07.084Z,94049.00
2023-04-22T14:11:35.562Z,94053.72
2023-04-22T14:14:04.273Z,94065.56
2023-04-22T14:16:33.752Z,94063.31
2023-04-22T14:19:02.837Z,94057.59
2023-04-22T14:21:31.358Z,94058.22
2023-04-22T14:23:59.785Z,94064.72
2023-04-22T14:26:29.781Z,94063.34
2023-04-22T14:28:58.285Z,94058.75
2023-04-22T14:31:27.600Z,94056.75
2023-04-22T14:33:56.303Z,94057.44
2023-04-22T14:36:24.905Z,94052.00
2023-04-22T14:38:53.456Z,94057.34
2023-04-22T14:41:22.384Z,94046.16
2023-04-22T14:43:52.228Z,94059.81
2023-04-22T14:46:20.737Z,94057.34
2023-04-22T14:48:50.371Z,94060.31
2023-04-22T14:51:19.005Z,94049.28
2023-04-22T14:53:47.604Z,94068.94
2023-04-22T14:56:16.177Z,94060.53
2023-04-22T14:58:44.961Z,94062.22
2023-04-22T15:01:14.856Z,94068.03
2023-04-22T15:03:43.577Z,94075.22
2023-04-22T15:06:12.197Z,94073.56
2023-04-22T15:08:40.957Z,94075.53
2023-04-22T15:11:09.430Z,94089.06
2023-04-22T15:13:37.938Z,94081.66
2023-04-22T15:16:06.844Z,94096.09
2023-04-22T15:18:36.993Z,94087.63
2023-04-22T15:21:08.111Z,94097.38
2023-04-22T15:23:36.509Z,94090.97
2023-04-22T15:26:05.060Z,94091.94
2023-04-22T15:28:34.179Z,94094.38
2023-04-22T15:31:03.284Z,94096.63
2023-04-22T15:33:52.092Z,94098.06
2023-04-22T15:36:21.686Z,94098.06
2023-04-22T15:38:56.038Z,94093.44
2023-04-22T15:41:28.363Z,94099.22
2023-04-22T15:43:56.938Z,94100.22
2023-04-22T15:46:25.382Z,94093.78
2023-04-22T15:48:57.411Z,94098.06
2023-04-22T15:51:25.966Z,94101.84
2023-04-22T15:53:55.212Z,94106.50
2023-04-22T15:56:24.385Z,94107.00
2023-04-22T15:58:53.175Z,94100.88
2023-04-22T16:01:41.371Z,94107.53
2023-04-22T16:04:12.082Z,94110.06
2023-04-22T16:06:40.815Z,94119.25
2023-04-22T16:09:09.376Z,94114.13
2023-04-22T16:11:37.794Z,94115.69
2023-04-22T16:14:06.284Z,94114.72
2023-04-22T16:16:34.911Z,94113.72
2023-04-22T16:19:04.018Z,94108.78
2023-04-22T16:21:34.031Z,94118.16
2023-04-22T16:24:02.543Z,94122.06
2023-04-22T16:26:31.009Z,94126.94
2023-04-22T16:28:59.535Z,94121.56
2023-04-22T16:31:28.034Z,94119.06
2023-04-22T16:33:56.466Z,94124.16
2023-04-22T16:36:24.897Z,94126.44
2023-04-22T16:39:00.706Z,94124.38
2023-04-22T16:41:29.376Z,94136.06
2023-04-22T16:43:58.243Z,94133.47
2023-04-22T16:46:26.870Z,94138.88
2023-04-22T16:48:55.356Z,94135.63
2023-04-22T16:51:23.785Z,94147.34
2023-04-22T16:53:52.271Z,94148.47
2023-04-22T16:56:24.022Z,94149.13
2023-04-22T16:59:20.015Z,94149.78
2023-04-22T17:01:48.510Z,94155.22
2023-04-22T17:04:17.170Z,94161.56
2023-04-22T17:06:46.027Z,94165.34
2023-04-22T17:09:14.528Z,94169.63
2023-04-22T17:11:44.525Z,94175.50
2023-04-22T17:14:13.053Z,94173.47
2023-04-22T17:16:41.855Z,94184.56
2023-04-22T17:19:10.375Z,94187.25
2023-04-22T17:21:38.816Z,94196.28
2023-04-22T17:24:07.628Z,94194.72
2023-04-22T17:26:37.109Z,94196.31
2023-04-22T17:29:07.089Z,94204.78
2023-04-22T17:31:35.700Z,94210.06
2023-04-22T17:34:04.487Z,94212.75
2023-04-22T17:36:32.904Z,94208.03
2023-04-22T17:39:01.358Z,94218.53
2023-04-22T17:41:29.882Z,94211.44
2023-04-22T17:43:59.304Z,94213.56
2023-04-22T17:46:39.284Z,94227.25
2023-04-22T17:49:07.738Z,94222.50
2023-04-22T17:51:36.304Z,94227.78
2023-04-22T17:54:05.366Z,94233.84
2023-04-22T17:56:33.787Z,94233.59
2023-04-22T17:59:02.287Z,94239.09
2023-04-22T18:01:31.222Z,94236.22
2023-04-22T18:04:01.429Z,94239.91
2023-04-22T18:06:30.451Z,94243.88
2023-04-22T18:08:58.912Z,94238.88
2023-04-22T18:11:28.026Z,94243.59
2023-04-22T18:13:56.620Z,94248.34
2023-04-22T18:16:25.222Z,94257.00
2023-04-22T18:18:53.666Z,94256.72
2023-04-22T18:21:23.560Z,94270.13
2023-04-22T18:23:53.217Z,94263.56
2023-04-22T18:26:21.792Z,94262.25
2023-04-22T18:28:50.241Z,94271.19
2023-04-22T18:31:18.712Z,94274.06
2023-04-22T18:33:47.206Z,94273.53
2023-04-22T18:36:15.632Z,94286.41
2023-04-22T18:38:45.572Z,94282.47
2023-04-22T18:41:14.725Z,94278.25
2023-04-22T18:43:43.154Z,94297.88
2023-04-22T18:46:11.707Z,94286.84
2023-04-22T18:48:40.498Z,94291.84
2023-04-22T18:51:09.346Z,94297.34
2023-04-22T18:53:37.809Z,94291.53
2023-04-22T18:56:07.969Z,94296.03
2023-04-22T18:58:36.870Z,94296.00
2023-04-22T19:01:05.975Z,94296.28
2023-04-22T19:03:34.646Z,94303.06
2023-04-22T19:06:03.207Z,94302.25
2023-04-22T19:08:31.707Z,94310.09
2023-04-22T19:11:00.530Z,94307.97
2023-04-22T19:13:30.517Z,94316.88
2023-04-22T19:16:00.054Z,94309.25
2023-04-22T19:18:28.620Z,94316.03
2023-04-22T19:20:57.131Z,94322.28
2023-04-22T19:23:25.683Z,94311.81
2023-04-22T19:25:54.185Z,94322.03
2023-04-22T19:28:22.598Z,94322.00
2023-04-22T19:30:52.712Z,94318.84
2023-04-22T19:33:46.555Z,94318.59
2023-04-22T19:36:14.993Z,94314.91
2023-04-22T19:38:43.857Z,94326.91
2023-04-22T19:41:12.413Z,94315.84
2023-04-22T19:43:41.200Z,94319.44
2023-04-22T19:46:11.105Z,94315.50
2023-04-22T19:48:40.758Z,94323.63
2023-04-22T19:51:12.789Z,94323.09
2023-04-22T19:53:42.631Z,94316.53
2023-04-22T19:56:11.540Z,94321.19
2023-04-22T19:58:41.033Z,94320.84
2023-04-22T20:01:12.224Z,94323.94
2023-04-22T20:03:41.617Z,94326.63
2023-04-22T20:06:12.723Z,94319.50
2023-04-22T20:08:43.715Z,94312.19
2023-04-22T20:11:13.084Z,94314.53
2023-04-22T20:13:42.408Z,94321.59
2023-04-22T20:16:31.984Z,94324.19
2023-04-22T20:19:00.733Z,94323.44
2023-04-22T20:21:30.356Z,94328.16
2023-04-22T20:23:59.928Z,94328.13
2023-04-22T20:26:28.790Z,94331.19
2023-04-22T20:28:57.521Z,94329.50
2023-04-22T20:31:26.365Z,94320.69
2023-04-22T20:33:57.202Z,94321.88
2023-04-22T20:36:26.449Z,94313.94
2023-04-22T20:39:06.764Z,94324.41
2023-04-22T20:41:39.938Z,94326.06
2023-04-22T20:44:08.560Z,94331.91
2023-04-22T20:46:37.944Z,94329.41
2023-04-22T20:49:08.166Z,94339.53
2023-04-22T20:51:36.608Z,94327.09
2023-04-22T20:54:09.816Z,94331.28
2023-04-22T20:56:46.219Z,94338.91
2023-04-22T20:59:14.803Z,94329.75
2023-04-22T21:01:43.903Z,94330.84
2023-04-22T21:04:15.825Z,94341.13
2023-04-22T21:07:17.868Z,94336.41
2023-04-22T21:09:46.927Z,94348.38
2023-04-22T21:12:18.272Z,94347.38
2023-04-22T21:14:47.807Z,94342.56
2023-04-22T21:17:22.204Z,94338.50
2023-04-22T21:19:56.952Z,94337.56
2023-04-22T21:22:26.411Z,94331.50
2023-04-22T21:24:55.915Z,94344.97
2023-04-22T21:27:25.084Z,94342.09
2023-04-22T21:29:54.438Z,94322.53
2023-04-22T21:32:22.962Z,94336.59
2023-04-22T21:34:52.793Z,94337.28
2023-04-22T21:37:21.301Z,94336.50
2023-04-22T21:39:49.753Z,94344.41
2023-04-22T21:42:18.306Z,94340.44
2023-04-22T21:44:49.829Z,94342.00
2023-04-22T21:47:18.834Z,94343.38
2023-04-22T21:49:47.626Z,94338.72
2023-04-22T21:52:17.578Z,94335.91
2023-04-22T21:54:46.103Z,94337.09
2023-04-22T21:57:15.012Z,94344.34
2023-04-22T21:59:43.479Z,94343.09
2023-04-22T22:02:11.951Z,94341.41
2023-04-22T22:04:40.978Z,94354.88
2023-04-22T22:07:09.811Z,94347.31
2023-04-22T22:09:40.927Z,94342.09
2023-04-22T22:12:12.151Z,94341.25
2023-04-22T22:14:40.864Z,94344.97
2023-04-22T22:17:09.756Z,94354.31
2023-04-22T22:20:11.868Z,94344.88
2023-04-22T22:22:40.948Z,94349.09
2023-04-22T22:25:13.959Z,94348.50
2023-04-22T22:27:45.580Z,94356.78
2023-04-22T22:30:14.948Z,94354.97
2023-04-22T22:32:43.662Z,94360.19
2023-04-22T22:35:12.336Z,94359.50
2023-04-22T22:37:41.137Z,94363.72
2023-04-22T22:40:13.109Z,94358.84
2023-04-22T22:42:41.479Z,94354.16
2023-04-22T22:45:11.734Z,94355.91
2023-04-22T22:47:40.322Z,94351.34
2023-04-22T22:50:10.120Z,94351.78
2023-04-22T22:52:38.613Z,94343.41
2023-04-22T22:55:08.257Z,94346.94
2023-04-22T22:57:53.403Z,94347.72
2023-04-22T23:00:22.256Z,94344.56
2023-04-22T23:03:05.626Z,94343.88
2023-04-22T23:05:34.276Z,94340.59
2023-04-22T23:08:02.696Z,94346.13
2023-04-22T23:10:31.500Z,94353.25
2023-04-22T23:13:01.371Z,94350.91
2023-04-22T23:15:29.996Z,94349.78
2023-04-22T23:17:58.668Z,94345.56
2023-04-22T23:20:28.487Z,94346.34
2023-04-22T23:22:58.630Z,94355.19
2023-04-22T23:25:28.030Z,94342.94
2023-04-22T23:27:56.609Z,94336.53
2023-04-22T23:30:43.958Z,94340.00
2023-04-22T23:33:15.605Z,94341.38
2023-04-22T23:35:45.920Z,94335.94
2023-04-22T23:38:14.340Z,94336.50
2023-04-22T23:40:42.815Z,94341.03
2023-04-22T23:43:21.207Z,94338.75
2023-04-22T23:45:51.229Z,94344.16
2023-04-22T23:48:19.714Z,94346.13
2023-04-22T23:51:10.215Z,94347.56
2023-04-22T23:53:38.615Z,94341.34
2023-04-22T23:56:09.296Z,94343.50
2023-04-22T23:58:38.597Z,94342.47
